sensor_id;sensor_type;location;lat;lon;timestamp;P1;durP1;ratioP1;P2;durP2;ratioP2
80541;SDS011;69870;51.460;8.842;2023-10-08T00:01:07;14.35;;;6.38;;
80541;SDS011;69870;51.460;8.842;2023-10-08T00:03:37;21.20;;;4.97;;
80541;SDS011;69870;51.460;8.842;2023-10-08T00:06:05;20.98;;;5.88;;
80541;SDS011;69870;51.460;8.842;2023-10-08T00:08:37;22.42;;;5.95;;
80541;SDS011;69870;51.460;8.842;2023-10-08T00:11:05;16.55;;;5.15;;
80541;SDS011;69870;51.460;8.842;2023-10-08T00:13:33;21.88;;;6.05;;
80541;SDS011;69870;51.460;8.842;2023-10-08T00:16:05;21.52;;;5.95;;
80541;SDS011;69870;51.460;8.842;2023-10-08T00:18:35;17.75;;;6.00;;
80541;SDS011;69870;51.460;8.842;2023-10-08T00:21:03;20.73;;;6.40;;
80541;SDS011;69870;51.460;8.842;2023-10-08T00:23:42;18.98;;;6.35;;
80541;SDS011;69870;51.460;8.842;2023-10-08T00:26:16;21.70;;;6.43;;
80541;SDS011;69870;51.460;8.842;2023-10-08T00:28:53;16.70;;;6.80;;
80541;SDS011;69870;51.460;8.842;2023-10-08T00:31:21;12.75;;;6.05;;
80541;SDS011;69870;51.460;8.842;2023-10-08T00:33:52;15.65;;;6.07;;
80541;SDS011;69870;51.460;8.842;2023-10-08T00:36:19;26.33;;;7.25;;
80541;SDS011;69870;51.460;8.842;2023-10-08T00:38:46;25.95;;;7.13;;
80541;SDS011;69870;51.460;8.842;2023-10-08T00:41:16;14.40;;;5.90;;
80541;SDS011;69870;51.460;8.842;2023-10-08T00:43:46;17.60;;;6.78;;
80541;SDS011;69870;51.460;8.842;2023-10-08T00:46:13;17.35;;;6.90;;
80541;SDS011;69870;51.460;8.842;2023-10-08T00:48:56;26.92;;;6.28;;
80541;SDS011;69870;51.460;8.842;2023-10-08T00:51:36;23.23;;;6.80;;
80541;SDS011;69870;51.460;8.842;2023-10-08T00:54:06;22.05;;;7.60;;
80541;SDS011;69870;51.460;8.842;2023-10-08T00:56:37;23.75;;;6.95;;
80541;SDS011;69870;51.460;8.842;2023-10-08T00:59:18;29.75;;;10.73;;
80541;SDS011;69870;51.460;8.842;2023-10-08T01:01:46;23.08;;;8.20;;
80541;SDS011;69870;51.460;8.842;2023-10-08T01:04:16;28.02;;;7.85;;
80541;SDS011;69870;51.460;8.842;2023-10-08T01:06:44;20.83;;;7.47;;
80541;SDS011;69870;51.460;8.842;2023-10-08T01:09:14;20.70;;;6.88;;
80541;SDS011;69870;51.460;8.842;2023-10-08T01:11:45;19.98;;;7.03;;
80541;SDS011;69870;51.460;8.842;2023-10-08T01:14:14;24.75;;;7.50;;
80541;SDS011;69870;51.460;8.842;2023-10-08T01:16:46;22.52;;;8.60;;
80541;SDS011;69870;51.460;8.842;2023-10-08T01:19:17;20.02;;;7.45;;
80541;SDS011;69870;51.460;8.842;2023-10-08T01:21:44;29.23;;;8.75;;
80541;SDS011;69870;51.460;8.842;2023-10-08T01:24:14;25.02;;;8.43;;
80541;SDS011;69870;51.460;8.842;2023-10-08T01:26:42;26.30;;;9.10;;
80541;SDS011;69870;51.460;8.842;2023-10-08T01:29:10;22.73;;;9.38;;
80541;SDS011;69870;51.460;8.842;2023-10-08T01:31:44;25.17;;;9.30;;
80541;SDS011;69870;51.460;8.842;2023-10-08T01:34:11;25.50;;;8.98;;
80541;SDS011;69870;51.460;8.842;2023-10-08T01:36:42;26.50;;;9.27;;
80541;SDS011;69870;51.460;8.842;2023-10-08T01:39:09;31.30;;;9.25;;
80541;SDS011;69870;51.460;8.842;2023-10-08T01:41:43;26.98;;;8.30;;
80541;SDS011;69870;51.460;8.842;2023-10-08T01:44:09;27.13;;;8.90;;
80541;SDS011;69870;51.460;8.842;2023-10-08T01:46:37;39.97;;;9.13;;
80541;SDS011;69870;51.460;8.842;2023-10-08T01:49:06;28.30;;;9.10;;
80541;SDS011;69870;51.460;8.842;2023-10-08T01:51:38;34.63;;;9.48;;
80541;SDS011;69870;51.460;8.842;2023-10-08T01:54:11;31.88;;;7.95;;
80541;SDS011;69870;51.460;8.842;2023-10-08T01:56:40;31.17;;;8.13;;
80541;SDS011;69870;51.460;8.842;2023-10-08T01:59:09;33.72;;;9.40;;
80541;SDS011;69870;51.460;8.842;2023-10-08T02:01:36;22.45;;;9.68;;
80541;SDS011;69870;51.460;8.842;2023-10-08T02:04:04;27.92;;;10.45;;
80541;SDS011;69870;51.460;8.842;2023-10-08T02:06:32;34.00;;;11.23;;
80541;SDS011;69870;51.460;8.842;2023-10-08T02:08:59;42.08;;;11.52;;
80541;SDS011;69870;51.460;8.842;2023-10-08T02:11:31;46.22;;;10.90;;
80541;SDS011;69870;51.460;8.842;2023-10-08T02:13:59;39.38;;;12.20;;
80541;SDS011;69870;51.460;8.842;2023-10-08T02:16:27;32.80;;;12.93;;
80541;SDS011;69870;51.460;8.842;2023-10-08T02:18:53;35.35;;;12.07;;
80541;SDS011;69870;51.460;8.842;2023-10-08T02:21:20;37.13;;;11.13;;
80541;SDS011;69870;51.460;8.842;2023-10-08T02:23:47;28.33;;;12.98;;
80541;SDS011;69870;51.460;8.842;2023-10-08T02:26:13;42.20;;;11.75;;
80541;SDS011;69870;51.460;8.842;2023-10-08T02:28:41;38.20;;;12.43;;
80541;SDS011;69870;51.460;8.842;2023-10-08T02:31:08;44.90;;;13.00;;
80541;SDS011;69870;51.460;8.842;2023-10-08T02:33:35;38.72;;;12.75;;
80541;SDS011;69870;51.460;8.842;2023-10-08T02:36:03;29.67;;;11.60;;
80541;SDS011;69870;51.460;8.842;2023-10-08T02:38:30;41.05;;;15.35;;
80541;SDS011;69870;51.460;8.842;2023-10-08T02:41:02;34.60;;;13.82;;
80541;SDS011;69870;51.460;8.842;2023-10-08T02:43:31;34.83;;;14.88;;
80541;SDS011;69870;51.460;8.842;2023-10-08T02:45:59;42.88;;;14.15;;
80541;SDS011;69870;51.460;8.842;2023-10-08T02:48:27;41.40;;;15.15;;
80541;SDS011;69870;51.460;8.842;2023-10-08T02:50:55;31.15;;;13.60;;
80541;SDS011;69870;51.460;8.842;2023-10-08T02:53:32;41.63;;;14.85;;
80541;SDS011;69870;51.460;8.842;2023-10-08T02:55:59;40.05;;;14.02;;
80541;SDS011;69870;51.460;8.842;2023-10-08T02:58:25;35.20;;;13.85;;
80541;SDS011;69870;51.460;8.842;2023-10-08T03:00:53;40.95;;;13.93;;
80541;SDS011;69870;51.460;8.842;2023-10-08T03:03:20;37.08;;;14.63;;
80541;SDS011;69870;51.460;8.842;2023-10-08T03:05:52;37.65;;;13.48;;
80541;SDS011;69870;51.460;8.842;2023-10-08T03:08:22;40.00;;;17.08;;
80541;SDS011;69870;51.460;8.842;2023-10-08T03:10:49;42.13;;;14.45;;
80541;SDS011;69870;51.460;8.842;2023-10-08T03:13:20;37.33;;;14.20;;
80541;SDS011;69870;51.460;8.842;2023-10-08T03:15:47;33.80;;;13.50;;
80541;SDS011;69870;51.460;8.842;2023-10-08T03:18:33;38.92;;;16.27;;
80541;SDS011;69870;51.460;8.842;2023-10-08T03:21:03;44.97;;;15.80;;
80541;SDS011;69870;51.460;8.842;2023-10-08T03:23:39;36.70;;;14.75;;
80541;SDS011;69870;51.460;8.842;2023-10-08T03:26:11;42.38;;;15.25;;
80541;SDS011;69870;51.460;8.842;2023-10-08T03:28:53;43.70;;;15.80;;
80541;SDS011;69870;51.460;8.842;2023-10-08T03:31:23;42.35;;;15.05;;
80541;SDS011;69870;51.460;8.842;2023-10-08T03:34:11;43.15;;;15.68;;
80541;SDS011;69870;51.460;8.842;2023-10-08T03:36:41;41.55;;;15.27;;
80541;SDS011;69870;51.460;8.842;2023-10-08T03:39:10;53.05;;;16.90;;
80541;SDS011;69870;51.460;8.842;2023-10-08T03:41:38;50.25;;;17.73;;
80541;SDS011;69870;51.460;8.842;2023-10-08T03:44:06;43.33;;;17.50;;
80541;SDS011;69870;51.460;8.842;2023-10-08T03:46:38;42.25;;;16.80;;
80541;SDS011;69870;51.460;8.842;2023-10-08T03:49:07;52.38;;;16.98;;
80541;SDS011;69870;51.460;8.842;2023-10-08T03:51:42;50.60;;;17.38;;
80541;SDS011;69870;51.460;8.842;2023-10-08T03:54:08;52.78;;;17.17;;
80541;SDS011;69870;51.460;8.842;2023-10-08T03:56:45;42.10;;;17.40;;
80541;SDS011;69870;51.460;8.842;2023-10-08T03:59:12;50.78;;;16.25;;
80541;SDS011;69870;51.460;8.842;2023-10-08T04:01:39;46.72;;;18.13;;
80541;SDS011;69870;51.460;8.842;2023-10-08T04:04:07;45.55;;;16.55;;
80541;SDS011;69870;51.460;8.842;2023-10-08T04:06:38;41.92;;;16.33;;
80541;SDS011;69870;51.460;8.842;2023-10-08T04:09:06;51.92;;;18.05;;
80541;SDS011;69870;51.460;8.842;2023-10-08T04:11:41;46.78;;;16.88;;
80541;SDS011;69870;51.460;8.842;2023-10-08T04:14:17;47.17;;;18.25;;
80541;SDS011;69870;51.460;8.842;2023-10-08T04:16:45;43.90;;;18.08;;
80541;SDS011;69870;51.460;8.842;2023-10-08T04:19:16;49.45;;;18.08;;
80541;SDS011;69870;51.460;8.842;2023-10-08T04:21:43;55.30;;;20.27;;
80541;SDS011;69870;51.460;8.842;2023-10-08T04:24:12;45.92;;;20.98;;
80541;SDS011;69870;51.460;8.842;2023-10-08T04:26:40;51.65;;;19.05;;
80541;SDS011;69870;51.460;8.842;2023-10-08T04:29:07;60.83;;;21.45;;
80541;SDS011;69870;51.460;8.842;2023-10-08T04:31:34;51.95;;;22.80;;
80541;SDS011;69870;51.460;8.842;2023-10-08T04:34:03;68.30;;;22.80;;
80541;SDS011;69870;51.460;8.842;2023-10-08T04:36:35;65.65;;;23.45;;
80541;SDS011;69870;51.460;8.842;2023-10-08T04:39:03;52.95;;;23.63;;
80541;SDS011;69870;51.460;8.842;2023-10-08T04:41:40;51.53;;;23.55;;
80541;SDS011;69870;51.460;8.842;2023-10-08T04:44:08;58.60;;;25.48;;
80541;SDS011;69870;51.460;8.842;2023-10-08T04:46:39;64.70;;;25.27;;
80541;SDS011;69870;51.460;8.842;2023-10-08T04:49:13;66.40;;;27.52;;
80541;SDS011;69870;51.460;8.842;2023-10-08T04:51:52;70.30;;;29.90;;
80541;SDS011;69870;51.460;8.842;2023-10-08T04:54:22;59.95;;;28.83;;
80541;SDS011;69870;51.460;8.842;2023-10-08T04:56:51;52.35;;;28.00;;
80541;SDS011;69870;51.460;8.842;2023-10-08T04:59:18;54.05;;;30.38;;
80541;SDS011;69870;51.460;8.842;2023-10-08T05:01:46;43.85;;;27.77;;
80541;SDS011;69870;51.460;8.842;2023-10-08T05:04:14;47.92;;;29.88;;
80541;SDS011;69870;51.460;8.842;2023-10-08T05:06:52;34.78;;;25.52;;
80541;SDS011;69870;51.460;8.842;2023-10-08T05:09:42;40.97;;;25.13;;
80541;SDS011;69870;51.460;8.842;2023-10-08T05:12:19;34.60;;;22.55;;
80541;SDS011;69870;51.460;8.842;2023-10-08T05:15:03;32.33;;;20.80;;
80541;SDS011;69870;51.460;8.842;2023-10-08T05:17:58;37.78;;;20.15;;
80541;SDS011;69870;51.460;8.842;2023-10-08T05:20:38;30.65;;;18.95;;
80541;SDS011;69870;51.460;8.842;2023-10-08T05:23:19;31.65;;;18.70;;
80541;SDS011;69870;51.460;8.842;2023-10-08T05:26:18;24.80;;;15.93;;
80541;SDS011;69870;51.460;8.842;2023-10-08T05:28:57;25.10;;;13.82;;
80541;SDS011;69870;51.460;8.842;2023-10-08T05:31:49;24.95;;;12.80;;
80541;SDS011;69870;51.460;8.842;2023-10-08T05:34:38;18.85;;;11.63;;
80541;SDS011;69870;51.460;8.842;2023-10-08T05:37:16;21.27;;;12.63;;
80541;SDS011;69870;51.460;8.842;2023-10-08T05:39:58;22.90;;;12.13;;
80541;SDS011;69870;51.460;8.842;2023-10-08T05:42:38;25.33;;;11.80;;
80541;SDS011;69870;51.460;8.842;2023-10-08T05:45:13;17.25;;;10.68;;
80541;SDS011;69870;51.460;8.842;2023-10-08T05:47:54;17.98;;;11.02;;
80541;SDS011;69870;51.460;8.842;2023-10-08T05:50:33;17.70;;;10.15;;
80541;SDS011;69870;51.460;8.842;2023-10-08T05:53:07;15.85;;;11.05;;
80541;SDS011;69870;51.460;8.842;2023-10-08T05:55:44;20.70;;;10.70;;
80541;SDS011;69870;51.460;8.842;2023-10-08T05:58:26;10.80;;;7.20;;
80541;SDS011;69870;51.460;8.842;2023-10-08T06:01:02;9.10;;;4.38;;
80541;SDS011;69870;51.460;8.842;2023-10-08T06:03:51;8.27;;;2.95;;
80541;SDS011;69870;51.460;8.842;2023-10-08T06:06:25;2.92;;;2.10;;
80541;SDS011;69870;51.460;8.842;2023-10-08T06:09:03;3.58;;;1.45;;
80541;SDS011;69870;51.460;8.842;2023-10-08T06:11:46;7.05;;;1.58;;
80541;SDS011;69870;51.460;8.842;2023-10-08T06:14:33;1.45;;;1.27;;
80541;SDS011;69870;51.460;8.842;2023-10-08T06:17:19;0.63;;;0.63;;
80541;SDS011;69870;51.460;8.842;2023-10-08T06:20:20;6.10;;;0.77;;
80541;SDS011;69870;51.460;8.842;2023-10-08T06:22:50;0.52;;;0.35;;
80541;SDS011;69870;51.460;8.842;2023-10-08T06:25:25;0.20;;;0.20;;
80541;SDS011;69870;51.460;8.842;2023-10-08T06:27:53;6.05;;;0.35;;
80541;SDS011;69870;51.460;8.842;2023-10-08T06:30:21;1.52;;;0.50;;
80541;SDS011;69870;51.460;8.842;2023-10-08T06:32:55;2.33;;;0.20;;
80541;SDS011;69870;51.460;8.842;2023-10-08T06:35:22;2.50;;;0.30;;
80541;SDS011;69870;51.460;8.842;2023-10-08T06:37:53;0.98;;;0.10;;
80541;SDS011;69870;51.460;8.842;2023-10-08T06:40:24;0.20;;;0.20;;
80541;SDS011;69870;51.460;8.842;2023-10-08T06:43:10;0.20;;;0.20;;
80541;SDS011;69870;51.460;8.842;2023-10-08T06:45:50;6.82;;;2.55;;
80541;SDS011;69870;51.460;8.842;2023-10-08T06:48:21;5.70;;;0.38;;
80541;SDS011;69870;51.460;8.842;2023-10-08T06:50:50;0.20;;;0.20;;
80541;SDS011;69870;51.460;8.842;2023-10-08T06:53:22;1.70;;;0.40;;
80541;SDS011;69870;51.460;8.842;2023-10-08T06:55:49;0.30;;;0.20;;
80541;SDS011;69870;51.460;8.842;2023-10-08T06:58:21;0.28;;;0.28;;
80541;SDS011;69870;51.460;8.842;2023-10-08T07:00:48;0.30;;;0.20;;
80541;SDS011;69870;51.460;8.842;2023-10-08T07:03:15;4.00;;;0.40;;
80541;SDS011;69870;51.460;8.842;2023-10-08T07:05:45;2.17;;;0.30;;
80541;SDS011;69870;51.460;8.842;2023-10-08T07:08:20;3.33;;;1.08;;
80541;SDS011;69870;51.460;8.842;2023-10-08T07:10:48;0.15;;;0.15;;
80541;SDS011;69870;51.460;8.842;2023-10-08T07:13:15;2.28;;;0.40;;
80541;SDS011;69870;51.460;8.842;2023-10-08T07:15:43;37.97;;;7.97;;
80541;SDS011;69870;51.460;8.842;2023-10-08T07:18:10;0.52;;;0.38;;
80541;SDS011;69870;51.460;8.842;2023-10-08T07:20:39;3.35;;;0.40;;
80541;SDS011;69870;51.460;8.842;2023-10-08T07:23:09;3.80;;;0.50;;
80541;SDS011;69870;51.460;8.842;2023-10-08T07:25:44;45.47;;;16.80;;
80541;SDS011;69870;51.460;8.842;2023-10-08T07:28:17;57.30;;;24.20;;
80541;SDS011;69870;51.460;8.842;2023-10-08T07:30:45;2.22;;;0.88;;
80541;SDS011;69870;51.460;8.842;2023-10-08T07:33:11;1.58;;;0.47;;
80541;SDS011;69870;51.460;8.842;2023-10-08T07:35:43;45.80;;;24.15;;
80541;SDS011;69870;51.460;8.842;2023-10-08T07:38:18;4.97;;;2.03;;
80541;SDS011;69870;51.460;8.842;2023-10-08T07:40:46;0.20;;;0.20;;
80541;SDS011;69870;51.460;8.842;2023-10-08T07:43:13;3.72;;;0.90;;
80541;SDS011;69870;51.460;8.842;2023-10-08T07:45:40;1.27;;;0.47;;
80541;SDS011;69870;51.460;8.842;2023-10-08T07:48:10;6.95;;;0.82;;
80541;SDS011;69870;51.460;8.842;2023-10-08T07:50:40;6.32;;;1.00;;
80541;SDS011;69870;51.460;8.842;2023-10-08T07:53:07;7.60;;;0.80;;
80541;SDS011;69870;51.460;8.842;2023-10-08T07:55:41;2.22;;;0.82;;
80541;SDS011;69870;51.460;8.842;2023-10-08T07:58:09;5.05;;;0.88;;
80541;SDS011;69870;51.460;8.842;2023-10-08T08:00:36;11.40;;;1.30;;
80541;SDS011;69870;51.460;8.842;2023-10-08T08:03:04;6.45;;;1.20;;
80541;SDS011;69870;51.460;8.842;2023-10-08T08:05:31;12.60;;;1.27;;
80541;SDS011;69870;51.460;8.842;2023-10-08T08:07:58;7.70;;;1.83;;
80541;SDS011;69870;51.460;8.842;2023-10-08T08:10:30;9.13;;;2.00;;
80541;SDS011;69870;51.460;8.842;2023-10-08T08:13:03;9.68;;;2.97;;
80541;SDS011;69870;51.460;8.842;2023-10-08T08:15:31;26.05;;;10.10;;
80541;SDS011;69870;51.460;8.842;2023-10-08T08:17:59;8.90;;;1.85;;
80541;SDS011;69870;51.460;8.842;2023-10-08T08:20:30;7.70;;;1.60;;
80541;SDS011;69870;51.460;8.842;2023-10-08T08:23:04;4.75;;;1.17;;
80541;SDS011;69870;51.460;8.842;2023-10-08T08:25:35;12.32;;;1.58;;
80541;SDS011;69870;51.460;8.842;2023-10-08T08:28:12;9.45;;;1.38;;
80541;SDS011;69870;51.460;8.842;2023-10-08T08:30:42;6.93;;;1.40;;
80541;SDS011;69870;51.460;8.842;2023-10-08T08:33:12;7.40;;;1.60;;
80541;SDS011;69870;51.460;8.842;2023-10-08T08:35:47;11.43;;;1.80;;
80541;SDS011;69870;51.460;8.842;2023-10-08T08:38:13;10.13;;;1.63;;
80541;SDS011;69870;51.460;8.842;2023-10-08T08:40:40;11.02;;;1.52;;
80541;SDS011;69870;51.460;8.842;2023-10-08T08:43:06;7.30;;;1.17;;
80541;SDS011;69870;51.460;8.842;2023-10-08T08:45:38;8.43;;;1.58;;
80541;SDS011;69870;51.460;8.842;2023-10-08T08:48:06;9.98;;;1.23;;
80541;SDS011;69870;51.460;8.842;2023-10-08T08:50:33;8.52;;;1.13;;
80541;SDS011;69870;51.460;8.842;2023-10-08T08:53:02;8.23;;;1.48;;
80541;SDS011;69870;51.460;8.842;2023-10-08T08:55:29;10.55;;;1.92;;
80541;SDS011;69870;51.460;8.842;2023-10-08T08:58:01;9.32;;;2.40;;
80541;SDS011;69870;51.460;8.842;2023-10-08T09:00:30;10.05;;;1.80;;
80541;SDS011;69870;51.460;8.842;2023-10-08T09:02:59;10.63;;;1.90;;
80541;SDS011;69870;51.460;8.842;2023-10-08T09:05:30;17.05;;;1.63;;
80541;SDS011;69870;51.460;8.842;2023-10-08T09:08:00;11.65;;;1.58;;
80541;SDS011;69870;51.460;8.842;2023-10-08T09:10:29;4.72;;;1.15;;
80541;SDS011;69870;51.460;8.842;2023-10-08T09:13:02;8.02;;;1.58;;
80541;SDS011;69870;51.460;8.842;2023-10-08T09:15:29;8.75;;;1.50;;
80541;SDS011;69870;51.460;8.842;2023-10-08T09:17:57;11.13;;;1.58;;
80541;SDS011;69870;51.460;8.842;2023-10-08T09:20:27;9.82;;;1.85;;
80541;SDS011;69870;51.460;8.842;2023-10-08T09:23:04;8.48;;;1.33;;
80541;SDS011;69870;51.460;8.842;2023-10-08T09:25:33;5.55;;;1.23;;
80541;SDS011;69870;51.460;8.842;2023-10-08T09:27:59;9.75;;;1.75;;
80541;SDS011;69870;51.460;8.842;2023-10-08T09:30:27;7.68;;;2.33;;
80541;SDS011;69870;51.460;8.842;2023-10-08T09:32:55;11.55;;;1.65;;
80541;SDS011;69870;51.460;8.842;2023-10-08T09:35:22;5.47;;;1.30;;
80541;SDS011;69870;51.460;8.842;2023-10-08T09:37:52;11.98;;;2.40;;
80541;SDS011;69870;51.460;8.842;2023-10-08T09:40:20;9.18;;;1.63;;
80541;SDS011;69870;51.460;8.842;2023-10-08T09:42:47;17.13;;;2.35;;
80541;SDS011;69870;51.460;8.842;2023-10-08T09:45:14;11.88;;;2.03;;
80541;SDS011;69870;51.460;8.842;2023-10-08T09:47:42;8.55;;;1.63;;
80541;SDS011;69870;51.460;8.842;2023-10-08T09:52:49;11.48;;;2.22;;
80541;SDS011;69870;51.460;8.842;2023-10-08T09:55:22;17.50;;;1.73;;
80541;SDS011;69870;51.460;8.842;2023-10-08T09:57:49;5.68;;;2.10;;
80541;SDS011;69870;51.460;8.842;2023-10-08T10:00:17;5.65;;;1.50;;
80541;SDS011;69870;51.460;8.842;2023-10-08T10:02:55;12.95;;;1.95;;
80541;SDS011;69870;51.460;8.842;2023-10-08T10:05:23;12.45;;;1.63;;
80541;SDS011;69870;51.460;8.842;2023-10-08T10:07:57;6.65;;;1.77;;
80541;SDS011;69870;51.460;8.842;2023-10-08T10:10:27;15.40;;;2.33;;
80541;SDS011;69870;51.460;8.842;2023-10-08T10:12:57;9.05;;;1.98;;
80541;SDS011;69870;51.460;8.842;2023-10-08T10:15:25;13.55;;;1.55;;
80541;SDS011;69870;51.460;8.842;2023-10-08T10:17:53;9.77;;;2.15;;
80541;SDS011;69870;51.460;8.842;2023-10-08T10:20:21;5.45;;;1.15;;
80541;SDS011;69870;51.460;8.842;2023-10-08T10:22:47;6.53;;;1.40;;
80541;SDS011;69870;51.460;8.842;2023-10-08T10:25:17;11.27;;;1.85;;
80541;SDS011;69870;51.460;8.842;2023-10-08T10:30:46;7.47;;;1.70;;
80541;SDS011;69870;51.460;8.842;2023-10-08T10:33:14;14.10;;;2.45;;
80541;SDS011;69870;51.460;8.842;2023-10-08T10:35:41;16.58;;;1.50;;
80541;SDS011;69870;51.460;8.842;2023-10-08T10:38:09;16.50;;;3.70;;
80541;SDS011;69870;51.460;8.842;2023-10-08T10:40:40;11.98;;;2.33;;
80541;SDS011;69870;51.460;8.842;2023-10-08T10:43:06;12.40;;;2.05;;
80541;SDS011;69870;51.460;8.842;2023-10-08T10:45:34;16.25;;;2.22;;
80541;SDS011;69870;51.460;8.842;2023-10-08T10:48:08;15.00;;;2.40;;
80541;SDS011;69870;51.460;8.842;2023-10-08T10:50:38;10.40;;;2.30;;
80541;SDS011;69870;51.460;8.842;2023-10-08T10:53:13;15.77;;;1.83;;
80541;SDS011;69870;51.460;8.842;2023-10-08T10:55:42;6.93;;;2.08;;
80541;SDS011;69870;51.460;8.842;2023-10-08T10:58:24;14.18;;;2.88;;
80541;SDS011;69870;51.460;8.842;2023-10-08T11:00:51;7.30;;;2.38;;
80541;SDS011;69870;51.460;8.842;2023-10-08T11:03:22;8.23;;;1.60;;
80541;SDS011;69870;51.460;8.842;2023-10-08T11:05:52;9.30;;;1.90;;
80541;SDS011;69870;51.460;8.842;2023-10-08T11:08:21;8.13;;;2.30;;
80541;SDS011;69870;51.460;8.842;2023-10-08T11:10:52;5.55;;;1.52;;
80541;SDS011;69870;51.460;8.842;2023-10-08T11:13:24;10.55;;;1.40;;
80541;SDS011;69870;51.460;8.842;2023-10-08T11:15:54;5.85;;;1.65;;
80541;SDS011;69870;51.460;8.842;2023-10-08T11:18:23;14.60;;;1.95;;
80541;SDS011;69870;51.460;8.842;2023-10-08T11:20:52;8.57;;;1.77;;
80541;SDS011;69870;51.460;8.842;2023-10-08T11:23:41;9.68;;;1.73;;
80541;SDS011;69870;51.460;8.842;2023-10-08T11:26:09;7.75;;;1.83;;
80541;SDS011;69870;51.460;8.842;2023-10-08T11:28:37;11.35;;;3.08;;
80541;SDS011;69870;51.460;8.842;2023-10-08T11:31:07;10.48;;;2.13;;
80541;SDS011;69870;51.460;8.842;2023-10-08T11:33:37;9.95;;;2.08;;
80541;SDS011;69870;51.460;8.842;2023-10-08T11:36:05;9.43;;;1.90;;
80541;SDS011;69870;51.460;8.842;2023-10-08T11:38:43;4.65;;;1.52;;
80541;SDS011;69870;51.460;8.842;2023-10-08T11:41:14;12.68;;;2.40;;
80541;SDS011;69870;51.460;8.842;2023-10-08T11:43:50;5.00;;;1.40;;
80541;SDS011;69870;51.460;8.842;2023-10-08T11:46:22;5.38;;;1.50;;
80541;SDS011;69870;51.460;8.842;2023-10-08T11:48:53;8.73;;;1.58;;
80541;SDS011;69870;51.460;8.842;2023-10-08T11:51:23;6.63;;;1.80;;
80541;SDS011;69870;51.460;8.842;2023-10-08T11:53:49;6.60;;;1.67;;
80541;SDS011;69870;51.460;8.842;2023-10-08T11:56:18;7.35;;;1.60;;
80541;SDS011;69870;51.460;8.842;2023-10-08T11:58:48;7.32;;;1.83;;
80541;SDS011;69870;51.460;8.842;2023-10-08T12:01:16;7.82;;;1.50;;
80541;SDS011;69870;51.460;8.842;2023-10-08T12:03:43;9.07;;;1.60;;
80541;SDS011;69870;51.460;8.842;2023-10-08T12:06:10;9.77;;;1.40;;
80541;SDS011;69870;51.460;8.842;2023-10-08T12:08:40;11.10;;;2.08;;
80541;SDS011;69870;51.460;8.842;2023-10-08T12:11:10;10.95;;;1.83;;
80541;SDS011;69870;51.460;8.842;2023-10-08T12:13:39;3.53;;;1.13;;
80541;SDS011;69870;51.460;8.842;2023-10-08T12:16:10;9.90;;;1.30;;
80541;SDS011;69870;51.460;8.842;2023-10-08T12:18:46;4.32;;;1.10;;
80541;SDS011;69870;51.460;8.842;2023-10-08T12:21:18;6.07;;;1.25;;
80541;SDS011;69870;51.460;8.842;2023-10-08T12:23:45;10.25;;;1.90;;
80541;SDS011;69870;51.460;8.842;2023-10-08T12:26:12;5.32;;;1.17;;
80541;SDS011;69870;51.460;8.842;2023-10-08T12:28:42;4.03;;;1.25;;
80541;SDS011;69870;51.460;8.842;2023-10-08T12:31:11;4.28;;;1.48;;
80541;SDS011;69870;51.460;8.842;2023-10-08T12:33:38;4.57;;;1.35;;
80541;SDS011;69870;51.460;8.842;2023-10-08T12:36:05;7.22;;;1.55;;
80541;SDS011;69870;51.460;8.842;2023-10-08T12:38:36;7.97;;;1.73;;
80541;SDS011;69870;51.460;8.842;2023-10-08T12:41:03;5.70;;;1.05;;
80541;SDS011;69870;51.460;8.842;2023-10-08T12:43:37;7.40;;;1.50;;
80541;SDS011;69870;51.460;8.842;2023-10-08T12:46:08;4.93;;;1.20;;
80541;SDS011;69870;51.460;8.842;2023-10-08T12:48:43;9.43;;;1.33;;
80541;SDS011;69870;51.460;8.842;2023-10-08T12:51:12;4.13;;;1.10;;
80541;SDS011;69870;51.460;8.842;2023-10-08T12:53:39;4.50;;;1.30;;
80541;SDS011;69870;51.460;8.842;2023-10-08T12:56:09;10.60;;;1.58;;
80541;SDS011;69870;51.460;8.842;2023-10-08T12:58:40;7.97;;;1.48;;
80541;SDS011;69870;51.460;8.842;2023-10-08T13:01:10;4.78;;;1.52;;
80541;SDS011;69870;51.460;8.842;2023-10-08T13:03:38;6.38;;;1.40;;
80541;SDS011;69870;51.460;8.842;2023-10-08T13:06:07;9.43;;;1.30;;
80541;SDS011;69870;51.460;8.842;2023-10-08T13:08:40;9.63;;;1.40;;
80541;SDS011;69870;51.460;8.842;2023-10-08T13:11:07;3.30;;;1.20;;
80541;SDS011;69870;51.460;8.842;2023-10-08T13:13:34;9.68;;;1.48;;
80541;SDS011;69870;51.460;8.842;2023-10-08T13:16:02;6.28;;;1.50;;
80541;SDS011;69870;51.460;8.842;2023-10-08T13:18:34;5.90;;;1.40;;
80541;SDS011;69870;51.460;8.842;2023-10-08T13:21:02;7.47;;;1.55;;
80541;SDS011;69870;51.460;8.842;2023-10-08T13:23:30;6.25;;;1.42;;
80541;SDS011;69870;51.460;8.842;2023-10-08T13:26:00;5.30;;;1.30;;
80541;SDS011;69870;51.460;8.842;2023-10-08T13:28:29;5.53;;;1.35;;
80541;SDS011;69870;51.460;8.842;2023-10-08T13:30:58;13.20;;;1.70;;
80541;SDS011;69870;51.460;8.842;2023-10-08T13:33:25;3.63;;;1.25;;
80541;SDS011;69870;51.460;8.842;2023-10-08T13:35:55;7.15;;;1.40;;
80541;SDS011;69870;51.460;8.842;2023-10-08T13:38:21;6.78;;;1.38;;
80541;SDS011;69870;51.460;8.842;2023-10-08T13:40:48;6.78;;;1.25;;
80541;SDS011;69870;51.460;8.842;2023-10-08T13:46:02;5.28;;;1.17;;
80541;SDS011;69870;51.460;8.842;2023-10-08T13:48:31;6.40;;;1.17;;
80541;SDS011;69870;51.460;8.842;2023-10-08T13:51:01;4.88;;;1.33;;
80541;SDS011;69870;51.460;8.842;2023-10-08T13:53:29;14.07;;;1.65;;
80541;SDS011;69870;51.460;8.842;2023-10-08T13:55:57;3.42;;;1.30;;
80541;SDS011;69870;51.460;8.842;2023-10-08T13:58:26;9.50;;;1.60;;
80541;SDS011;69870;51.460;8.842;2023-10-08T14:00:53;8.13;;;1.60;;
80541;SDS011;69870;51.460;8.842;2023-10-08T14:03:20;4.88;;;1.00;;
80541;SDS011;69870;51.460;8.842;2023-10-08T14:05:47;8.85;;;1.20;;
80541;SDS011;69870;51.460;8.842;2023-10-08T14:08:17;6.05;;;1.40;;
80541;SDS011;69870;51.460;8.842;2023-10-08T14:10:44;3.83;;;1.00;;
80541;SDS011;69870;51.460;8.842;2023-10-08T14:13:13;5.85;;;1.30;;
80541;SDS011;69870;51.460;8.842;2023-10-08T14:15:44;6.05;;;1.48;;
80541;SDS011;69870;51.460;8.842;2023-10-08T14:18:14;2.90;;;1.40;;
80541;SDS011;69870;51.460;8.842;2023-10-08T14:20:42;4.60;;;1.60;;
80541;SDS011;69870;51.460;8.842;2023-10-08T14:23:12;4.85;;;1.25;;
80541;SDS011;69870;51.460;8.842;2023-10-08T14:25:43;8.82;;;1.85;;
80541;SDS011;69870;51.460;8.842;2023-10-08T14:28:11;5.07;;;2.08;;
80541;SDS011;69870;51.460;8.842;2023-10-08T14:30:47;5.22;;;1.40;;
80541;SDS011;69870;51.460;8.842;2023-10-08T14:33:19;4.82;;;1.85;;
80541;SDS011;69870;51.460;8.842;2023-10-08T14:35:52;3.35;;;1.67;;
80541;SDS011;69870;51.460;8.842;2023-10-08T14:38:36;4.50;;;2.00;;
80541;SDS011;69870;51.460;8.842;2023-10-08T14:41:22;6.95;;;1.80;;
80541;SDS011;69870;51.460;8.842;2023-10-08T14:44:06;8.98;;;1.92;;
80541;SDS011;69870;51.460;8.842;2023-10-08T14:46:33;7.40;;;1.70;;
80541;SDS011;69870;51.460;8.842;2023-10-08T14:49:02;6.53;;;1.67;;
80541;SDS011;69870;51.460;8.842;2023-10-08T14:51:36;9.65;;;1.50;;
80541;SDS011;69870;51.460;8.842;2023-10-08T14:54:05;7.25;;;1.83;;
80541;SDS011;69870;51.460;8.842;2023-10-08T14:56:34;7.15;;;1.48;;
80541;SDS011;69870;51.460;8.842;2023-10-08T14:59:02;6.13;;;1.23;;
80541;SDS011;69870;51.460;8.842;2023-10-08T15:01:29;8.43;;;2.00;;
80541;SDS011;69870;51.460;8.842;2023-10-08T15:03:58;9.50;;;1.92;;
80541;SDS011;69870;51.460;8.842;2023-10-08T15:06:28;11.38;;;1.55;;
80541;SDS011;69870;51.460;8.842;2023-10-08T15:08:56;9.10;;;1.25;;